N423GG KUMP-KISM
Flight info
| Callsign | N423GG |
|---|---|
| Flight time | 1h 52m |
| Altitude | 37000 |
| Route | DAWNN1 IIU Q79 THRSR MUKAL JAFAR3 |
| Aircraft | E55P/M-VGDW/C |
Departure
| Time | 2026-04-16 12:55 |
|---|---|
| Airport | Indianapolis Metropolitan Airport (KUMP) |
Arrival
| Time | 2026-04-16 14:47 |
|---|---|
| Airport | Kissimmee Gateway Airport (KISM) |
| Time | Latitude | Longitude | Altitude | Speed | Heading |
|---|---|---|---|---|---|
| 2026-04-16 12:43 | 39.93411 | -86.04622 | 796 ft | 0 kts | 146° |
| 2026-04-16 12:51 | 39.93405 | -86.04614 | 797 ft | 3 kts | 113° |
| 2026-04-16 12:52 | 39.93386 | -86.04578 | 797 ft | 6 kts | 147° |
| 2026-04-16 12:52 | 39.93339 | -86.04536 | 798 ft | 9 kts | 146° |
| 2026-04-16 12:52 | 39.93283 | -86.04488 | 799 ft | 10 kts | 148° |
| 2026-04-16 12:52 | 39.93257 | -86.04430 | 801 ft | 7 kts | 58° |
| 2026-04-16 12:53 | 39.93236 | -86.04383 | 801 ft | 6 kts | 145° |
| 2026-04-16 12:53 | 39.93192 | -86.04343 | 802 ft | 8 kts | 145° |
| 2026-04-16 12:53 | 39.93135 | -86.04292 | 803 ft | 10 kts | 146° |
| 2026-04-16 12:53 | 39.93130 | -86.04288 | 803 ft | 10 kts | 146° |
| 2026-04-16 12:54 | 39.93107 | -86.04267 | 804 ft | 11 kts | 146° |
| 2026-04-16 12:54 | 39.93047 | -86.04199 | 805 ft | 11 kts | 87° |
| 2026-04-16 12:54 | 39.93092 | -86.04123 | 806 ft | 9 kts | 16° |
| 2026-04-16 12:54 | 39.93175 | -86.04182 | 805 ft | 35 kts | 325° |
| 2026-04-16 12:55 | 39.93627 | -86.04637 | 794 ft | 124 kts | 316° |
| 2026-04-16 12:55 | 39.94450 | -86.05435 | 1082 ft | 167 kts | 318° |
| 2026-04-16 12:55 | 39.95486 | -86.06477 | 1374 ft | 202 kts | 306° |
| 2026-04-16 12:55 | 39.95923 | -86.08170 | 1946 ft | 204 kts | 260° |
| 2026-04-16 12:56 | 39.95257 | -86.09724 | 2580 ft | 212 kts | 221° |
| 2026-04-16 12:56 | 39.93798 | -86.10330 | 3076 ft | 234 kts | 184° |
| 2026-04-16 12:56 | 39.92176 | -86.10103 | 3716 ft | 238 kts | 179° |
| 2026-04-16 12:56 | 39.90535 | -86.09844 | 4355 ft | 238 kts | 181° |
| 2026-04-16 12:57 | 39.88929 | -86.10014 | 4966 ft | 231 kts | 195° |
| 2026-04-16 12:57 | 39.87333 | -86.10320 | 5479 ft | 233 kts | 195° |
| 2026-04-16 12:57 | 39.85726 | -86.10660 | 5969 ft | 234 kts | 196° |
| 2026-04-16 12:57 | 39.84127 | -86.11005 | 6466 ft | 234 kts | 198° |
| 2026-04-16 12:58 | 39.82504 | -86.11103 | 6892 ft | 248 kts | 174° |
| 2026-04-16 12:58 | 39.80820 | -86.10538 | 7365 ft | 248 kts | 175° |
| 2026-04-16 12:58 | 39.79146 | -86.10021 | 7776 ft | 247 kts | 174° |
| 2026-04-16 12:58 | 39.77419 | -86.09482 | 7880 ft | 270 kts | 174° |
| 2026-04-16 12:59 | 39.75546 | -86.08888 | 8585 ft | 284 kts | 174° |
| 2026-04-16 12:59 | 39.73665 | -86.08285 | 9728 ft | 280 kts | 174° |
| 2026-04-16 12:59 | 39.71802 | -86.07693 | 10841 ft | 276 kts | 174° |
| 2026-04-16 13:00 | 39.68090 | -86.06520 | 12672 ft | 277 kts | 174° |
| 2026-04-16 13:00 | 39.66176 | -86.05923 | 12917 ft | 298 kts | 174° |
| 2026-04-16 13:00 | 39.64056 | -86.05254 | 13057 ft | 320 kts | 173° |
| 2026-04-16 13:00 | 39.61904 | -86.04567 | 13727 ft | 322 kts | 173° |
| 2026-04-16 13:01 | 39.59736 | -86.03876 | 14475 ft | 322 kts | 174° |
| 2026-04-16 13:01 | 39.57544 | -86.03186 | 15115 ft | 326 kts | 174° |
| 2026-04-16 13:01 | 39.55323 | -86.02487 | 15675 ft | 333 kts | 174° |
| 2026-04-16 13:01 | 39.53089 | -86.01781 | 16352 ft | 334 kts | 174° |
| 2026-04-16 13:02 | 39.50808 | -86.01067 | 16935 ft | 338 kts | 175° |
| 2026-04-16 13:02 | 39.48500 | -86.00341 | 17428 ft | 344 kts | 174° |
| 2026-04-16 13:02 | 39.46153 | -85.99599 | 17942 ft | 350 kts | 175° |
| 2026-04-16 13:02 | 39.43794 | -85.98862 | 18533 ft | 352 kts | 175° |
| 2026-04-16 13:03 | 39.41428 | -85.98119 | 19335 ft | 348 kts | 175° |
| 2026-04-16 13:03 | 39.39099 | -85.97385 | 20108 ft | 344 kts | 175° |
| 2026-04-16 13:03 | 39.36775 | -85.96658 | 20682 ft | 346 kts | 175° |
| 2026-04-16 13:03 | 39.34464 | -85.95937 | 21330 ft | 345 kts | 176° |
| 2026-04-16 13:04 | 39.32116 | -85.95197 | 22012 ft | 343 kts | 176° |
| 2026-04-16 13:04 | 39.29823 | -85.94486 | 22629 ft | 342 kts | 175° |
| 2026-04-16 13:04 | 39.27533 | -85.93763 | 23335 ft | 339 kts | 176° |
| 2026-04-16 13:04 | 39.25235 | -85.93050 | 23972 ft | 338 kts | 176° |
| 2026-04-16 13:05 | 39.22980 | -85.92342 | 24615 ft | 336 kts | 175° |
| 2026-04-16 13:05 | 39.20695 | -85.91634 | 25287 ft | 334 kts | 175° |
| 2026-04-16 13:05 | 39.18460 | -85.90932 | 25844 ft | 334 kts | 175° |
| 2026-04-16 13:05 | 39.16204 | -85.90231 | 26350 ft | 336 kts | 175° |
| 2026-04-16 13:06 | 39.13885 | -85.89521 | 26328 ft | 352 kts | 175° |
| 2026-04-16 13:06 | 39.11441 | -85.88758 | 26350 ft | 367 kts | 175° |
| 2026-04-16 13:06 | 39.08944 | -85.87988 | 26365 ft | 380 kts | 175° |
| 2026-04-16 13:06 | 39.06303 | -85.87161 | 26386 ft | 392 kts | 175° |
| 2026-04-16 13:07 | 39.03626 | -85.86327 | 26604 ft | 398 kts | 174° |
| 2026-04-16 13:07 | 39.00969 | -85.85498 | 27111 ft | 395 kts | 174° |
| 2026-04-16 13:07 | 38.98303 | -85.84670 | 27750 ft | 390 kts | 174° |
| 2026-04-16 13:07 | 38.95679 | -85.83847 | 28228 ft | 389 kts | 175° |
| 2026-04-16 13:08 | 38.93070 | -85.83048 | 28727 ft | 387 kts | 175° |
| 2026-04-16 13:08 | 38.90453 | -85.82237 | 29069 ft | 390 kts | 175° |
| 2026-04-16 13:08 | 38.87826 | -85.81427 | 29574 ft | 388 kts | 175° |
| 2026-04-16 13:08 | 38.85229 | -85.80624 | 30181 ft | 383 kts | 175° |
| 2026-04-16 13:09 | 38.82622 | -85.79817 | 30645 ft | 382 kts | 175° |
| 2026-04-16 13:09 | 38.80046 | -85.79023 | 31092 ft | 382 kts | 175° |
| 2026-04-16 13:09 | 38.77467 | -85.78224 | 31537 ft | 381 kts | 175° |
| 2026-04-16 13:09 | 38.74896 | -85.77441 | 31988 ft | 380 kts | 175° |
| 2026-04-16 13:10 | 38.72336 | -85.76653 | 32449 ft | 379 kts | 175° |
| 2026-04-16 13:10 | 38.69776 | -85.75863 | 32808 ft | 380 kts | 175° |
| 2026-04-16 13:10 | 38.67227 | -85.75080 | 33355 ft | 376 kts | 175° |
| 2026-04-16 13:10 | 38.64678 | -85.74295 | 33789 ft | 375 kts | 175° |
| 2026-04-16 13:11 | 38.62168 | -85.73523 | 34234 ft | 372 kts | 175° |
| 2026-04-16 13:11 | 38.59671 | -85.72762 | 34532 ft | 373 kts | 175° |
| 2026-04-16 13:11 | 38.57123 | -85.71980 | 34759 ft | 376 kts | 175° |
| 2026-04-16 13:11 | 38.54563 | -85.71191 | 35052 ft | 378 kts | 176° |
| 2026-04-16 13:12 | 38.52042 | -85.70422 | 35356 ft | 378 kts | 176° |
| 2026-04-16 13:12 | 38.49500 | -85.69643 | 35677 ft | 377 kts | 176° |
| 2026-04-16 13:12 | 38.46950 | -85.68862 | 36089 ft | 376 kts | 176° |
| 2026-04-16 13:12 | 38.44385 | -85.68086 | 36199 ft | 383 kts | 177° |
| 2026-04-16 13:13 | 38.41761 | -85.67289 | 36215 ft | 391 kts | 177° |
| 2026-04-16 13:13 | 38.36408 | -85.65659 | 36552 ft | 400 kts | 176° |
| 2026-04-16 13:13 | 38.33733 | -85.64835 | 36974 ft | 398 kts | 177° |
| 2026-04-16 13:14 | 38.30990 | -85.64008 | 37009 ft | 405 kts | 177° |
| 2026-04-16 13:14 | 38.25458 | -85.62328 | 37009 ft | 413 kts | 176° |
| 2026-04-16 13:15 | 38.19879 | -85.60633 | 37015 ft | 413 kts | 177° |
| 2026-04-16 13:15 | 38.14278 | -85.58936 | 37019 ft | 414 kts | 177° |
| 2026-04-16 13:16 | 38.08674 | -85.57111 | 37012 ft | 419 kts | 174° |
| 2026-04-16 13:16 | 38.03064 | -85.55745 | 37024 ft | 412 kts | 178° |
| 2026-04-16 13:17 | 37.97481 | -85.54269 | 37026 ft | 414 kts | 178° |
| 2026-04-16 13:17 | 37.91819 | -85.52745 | 37024 ft | 415 kts | 178° |
| 2026-04-16 13:18 | 37.86167 | -85.51221 | 37033 ft | 416 kts | 178° |
| 2026-04-16 13:18 | 37.80512 | -85.49702 | 37046 ft | 416 kts | 178° |
| 2026-04-16 13:19 | 37.74879 | -85.48189 | 37221 ft | 414 kts | 178° |
| 2026-04-16 13:19 | 37.72047 | -85.47437 | 37056 ft | 416 kts | 178° |
| 2026-04-16 13:19 | 37.69211 | -85.46673 | 37035 ft | 416 kts | 178° |
| 2026-04-16 13:20 | 37.63571 | -85.45164 | 37042 ft | 415 kts | 178° |
| 2026-04-16 13:20 | 37.57948 | -85.43662 | 37050 ft | 416 kts | 178° |
| 2026-04-16 13:21 | 37.52269 | -85.42149 | 37065 ft | 417 kts | 178° |
| 2026-04-16 13:21 | 37.46594 | -85.40634 | 37073 ft | 419 kts | 178° |
| 2026-04-16 13:22 | 37.40902 | -85.39123 | 37081 ft | 419 kts | 178° |
| 2026-04-16 13:22 | 37.35220 | -85.37614 | 37083 ft | 418 kts | 178° |
| 2026-04-16 13:23 | 37.29517 | -85.36105 | 37071 ft | 418 kts | 178° |
| 2026-04-16 13:23 | 37.23825 | -85.34599 | 37068 ft | 420 kts | 179° |
| 2026-04-16 13:24 | 37.18129 | -85.33091 | 37057 ft | 419 kts | 179° |
| 2026-04-16 13:24 | 37.12434 | -85.31591 | 37065 ft | 417 kts | 179° |
| 2026-04-16 13:25 | 37.06765 | -85.30100 | 37066 ft | 418 kts | 179° |
| 2026-04-16 13:25 | 37.01071 | -85.28600 | 37067 ft | 419 kts | 179° |
| 2026-04-16 13:26 | 36.95378 | -85.27104 | 37070 ft | 421 kts | 179° |
| 2026-04-16 13:26 | 36.89635 | -85.25599 | 37080 ft | 422 kts | 179° |
| 2026-04-16 13:27 | 36.83886 | -85.24095 | 37076 ft | 422 kts | 179° |
| 2026-04-16 13:27 | 36.78130 | -85.22591 | 37092 ft | 423 kts | 179° |
| 2026-04-16 13:28 | 36.72365 | -85.21090 | 37083 ft | 423 kts | 179° |
| 2026-04-16 13:28 | 36.66617 | -85.19589 | 37090 ft | 422 kts | 179° |
| 2026-04-16 13:29 | 36.60899 | -85.18101 | 37091 ft | 421 kts | 179° |
| 2026-04-16 13:29 | 36.55134 | -85.16606 | 37101 ft | 425 kts | 179° |
| 2026-04-16 13:30 | 36.49350 | -85.15107 | 37100 ft | 427 kts | 179° |
| 2026-04-16 13:30 | 36.43549 | -85.13602 | 37101 ft | 424 kts | 179° |
| 2026-04-16 13:31 | 36.37806 | -85.12118 | 37108 ft | 421 kts | 179° |
| 2026-04-16 13:31 | 36.32070 | -85.10635 | 37101 ft | 422 kts | 179° |
| 2026-04-16 13:32 | 36.26325 | -85.09161 | 37111 ft | 426 kts | 179° |
| 2026-04-16 13:32 | 36.20496 | -85.07657 | 37119 ft | 428 kts | 179° |
| 2026-04-16 13:33 | 36.14674 | -85.06160 | 37120 ft | 429 kts | 179° |
| 2026-04-16 13:33 | 36.08842 | -85.04665 | 37131 ft | 429 kts | 179° |
| 2026-04-16 13:34 | 36.03003 | -85.03166 | 37149 ft | 428 kts | 179° |
| 2026-04-16 13:34 | 35.97214 | -85.01686 | 37147 ft | 427 kts | 179° |
| 2026-04-16 13:35 | 35.91373 | -85.00192 | 37137 ft | 427 kts | 179° |
| 2026-04-16 13:35 | 35.85593 | -84.98721 | 37150 ft | 429 kts | 179° |
| 2026-04-16 13:36 | 35.79728 | -84.97227 | 37151 ft | 432 kts | 179° |
| 2026-04-16 13:36 | 35.73832 | -84.95729 | 37132 ft | 431 kts | 179° |
| 2026-04-16 13:37 | 35.67989 | -84.94241 | 37133 ft | 426 kts | 179° |
| 2026-04-16 13:37 | 35.62220 | -84.92780 | 37132 ft | 426 kts | 179° |
| 2026-04-16 13:38 | 35.56342 | -84.91295 | 37138 ft | 433 kts | 179° |
| 2026-04-16 13:38 | 35.50411 | -84.89793 | 37141 ft | 438 kts | 179° |
| 2026-04-16 13:39 | 35.44486 | -84.88287 | 37135 ft | 435 kts | 179° |
| 2026-04-16 13:39 | 35.38581 | -84.86796 | 37144 ft | 429 kts | 179° |
| 2026-04-16 13:40 | 35.32754 | -84.85330 | 37143 ft | 426 kts | 179° |
| 2026-04-16 13:40 | 35.26944 | -84.83868 | 37147 ft | 431 kts | 179° |
| 2026-04-16 13:41 | 35.21020 | -84.82381 | 37156 ft | 439 kts | 179° |
| 2026-04-16 13:41 | 35.15026 | -84.80869 | 37152 ft | 436 kts | 179° |
| 2026-04-16 13:42 | 35.09129 | -84.79394 | 37154 ft | 431 kts | 179° |
| 2026-04-16 13:42 | 35.03254 | -84.77924 | 37160 ft | 432 kts | 179° |
| 2026-04-16 13:43 | 34.97350 | -84.76451 | 37153 ft | 436 kts | 179° |
| 2026-04-16 13:43 | 34.91395 | -84.74963 | 37163 ft | 438 kts | 179° |
| 2026-04-16 13:44 | 34.85418 | -84.73471 | 37163 ft | 437 kts | 179° |
| 2026-04-16 13:44 | 34.79516 | -84.72004 | 37176 ft | 434 kts | 179° |
| 2026-04-16 13:45 | 34.73602 | -84.70534 | 37180 ft | 433 kts | 179° |
| 2026-04-16 13:45 | 34.67693 | -84.69070 | 37178 ft | 436 kts | 179° |
| 2026-04-16 13:46 | 34.61714 | -84.67588 | 37181 ft | 439 kts | 179° |
| 2026-04-16 13:46 | 34.55749 | -84.66082 | 37171 ft | 440 kts | 178° |
| 2026-04-16 13:47 | 34.49749 | -84.64510 | 37175 ft | 439 kts | 178° |
| 2026-04-16 13:47 | 34.43809 | -84.62959 | 37179 ft | 438 kts | 178° |
| 2026-04-16 13:48 | 34.37822 | -84.61393 | 37185 ft | 440 kts | 178° |
| 2026-04-16 13:48 | 34.31844 | -84.59838 | 37191 ft | 441 kts | 178° |
| 2026-04-16 13:49 | 34.25843 | -84.58272 | 37197 ft | 441 kts | 178° |
| 2026-04-16 13:49 | 34.19851 | -84.56718 | 37201 ft | 442 kts | 178° |
| 2026-04-16 13:50 | 34.13869 | -84.55161 | 37197 ft | 440 kts | 178° |
| 2026-04-16 13:50 | 34.07901 | -84.53617 | 37194 ft | 438 kts | 178° |
| 2026-04-16 13:51 | 34.01916 | -84.52097 | 37199 ft | 441 kts | 180° |
| 2026-04-16 13:51 | 33.95834 | -84.50760 | 37203 ft | 445 kts | 180° |
| 2026-04-16 13:52 | 33.89798 | -84.49425 | 37196 ft | 440 kts | 180° |
| 2026-04-16 13:52 | 33.83802 | -84.48103 | 37197 ft | 435 kts | 180° |
| 2026-04-16 13:53 | 33.77818 | -84.46787 | 37200 ft | 440 kts | 179° |
| 2026-04-16 13:53 | 33.71741 | -84.45454 | 37200 ft | 449 kts | 179° |
| 2026-04-16 13:54 | 33.65596 | -84.44100 | 37199 ft | 448 kts | 179° |
| 2026-04-16 13:54 | 33.59595 | -84.41891 | 37214 ft | 456 kts | 167° |
| 2026-04-16 13:55 | 33.53711 | -84.39023 | 37205 ft | 461 kts | 167° |
| 2026-04-16 13:55 | 33.47704 | -84.36095 | 37206 ft | 468 kts | 167° |
| 2026-04-16 13:56 | 33.41699 | -84.33167 | 37198 ft | 458 kts | 167° |
| 2026-04-16 13:56 | 33.35840 | -84.30323 | 37193 ft | 454 kts | 167° |
| 2026-04-16 13:57 | 33.29986 | -84.27487 | 37197 ft | 455 kts | 167° |
| 2026-04-16 13:57 | 33.24127 | -84.24652 | 37197 ft | 457 kts | 167° |
| 2026-04-16 13:58 | 33.15258 | -84.20364 | 37192 ft | 459 kts | 167° |
| 2026-04-16 13:58 | 33.09359 | -84.17516 | 37194 ft | 457 kts | 167° |
| 2026-04-16 13:59 | 33.03450 | -84.14672 | 37198 ft | 455 kts | 167° |
| 2026-04-16 13:59 | 32.97588 | -84.11850 | 37199 ft | 458 kts | 167° |
| 2026-04-16 14:00 | 32.91678 | -84.09012 | 37195 ft | 461 kts | 167° |
| 2026-04-16 14:00 | 32.85716 | -84.06150 | 37196 ft | 461 kts | 167° |
| 2026-04-16 14:01 | 32.79773 | -84.03301 | 37189 ft | 457 kts | 167° |
| 2026-04-16 14:01 | 32.73906 | -84.00496 | 37191 ft | 457 kts | 167° |
| 2026-04-16 14:02 | 32.67984 | -83.97669 | 37192 ft | 463 kts | 166° |
| 2026-04-16 14:02 | 32.62017 | -83.94820 | 37196 ft | 464 kts | 166° |
| 2026-04-16 14:03 | 32.56031 | -83.91966 | 37191 ft | 459 kts | 166° |
| 2026-04-16 14:03 | 32.50155 | -83.89176 | 37198 ft | 454 kts | 166° |
| 2026-04-16 14:04 | 32.44271 | -83.86382 | 37198 ft | 459 kts | 166° |
| 2026-04-16 14:04 | 32.38324 | -83.83565 | 37194 ft | 465 kts | 166° |
| 2026-04-16 14:05 | 32.32329 | -83.80721 | 37193 ft | 464 kts | 166° |
| 2026-04-16 14:05 | 32.26364 | -83.77898 | 37187 ft | 456 kts | 166° |
| 2026-04-16 14:06 | 32.20517 | -83.75141 | 37185 ft | 455 kts | 166° |
| 2026-04-16 14:06 | 32.14582 | -83.72341 | 37199 ft | 464 kts | 166° |
| 2026-04-16 14:07 | 32.08557 | -83.69507 | 37203 ft | 468 kts | 166° |
| 2026-04-16 14:07 | 32.02549 | -83.66679 | 37196 ft | 462 kts | 166° |
| 2026-04-16 14:08 | 31.96611 | -83.63886 | 37202 ft | 455 kts | 166° |
| 2026-04-16 14:08 | 31.90747 | -83.61140 | 37197 ft | 458 kts | 166° |
| 2026-04-16 14:09 | 31.84721 | -83.58323 | 37199 ft | 468 kts | 165° |
| 2026-04-16 14:09 | 31.78696 | -83.55499 | 37192 ft | 467 kts | 165° |
| 2026-04-16 14:10 | 31.72698 | -83.52697 | 37190 ft | 457 kts | 165° |
| 2026-04-16 14:10 | 31.66833 | -83.49965 | 37198 ft | 455 kts | 165° |
| 2026-04-16 14:11 | 31.60880 | -83.47197 | 37212 ft | 466 kts | 165° |
| 2026-04-16 14:11 | 31.54807 | -83.44367 | 37217 ft | 470 kts | 165° |
| 2026-04-16 14:12 | 31.48783 | -83.41568 | 37206 ft | 462 kts | 165° |
| 2026-04-16 14:12 | 31.42890 | -83.38833 | 37212 ft | 454 kts | 165° |
| 2026-04-16 14:13 | 31.37017 | -83.36121 | 37214 ft | 457 kts | 165° |
| 2026-04-16 14:13 | 31.31002 | -83.33337 | 37201 ft | 468 kts | 165° |
| 2026-04-16 14:14 | 31.24960 | -83.30544 | 37191 ft | 466 kts | 165° |
| 2026-04-16 14:14 | 31.19002 | -83.27794 | 37192 ft | 457 kts | 166° |
| 2026-04-16 14:15 | 31.13071 | -83.25065 | 37193 ft | 457 kts | 165° |
| 2026-04-16 14:15 | 31.07117 | -83.22330 | 37208 ft | 466 kts | 165° |
| 2026-04-16 14:16 | 31.01066 | -83.19548 | 37203 ft | 468 kts | 165° |
| 2026-04-16 14:16 | 30.95047 | -83.16783 | 37199 ft | 461 kts | 165° |
| 2026-04-16 14:17 | 30.89128 | -83.14072 | 37203 ft | 455 kts | 165° |
| 2026-04-16 14:17 | 30.83216 | -83.11372 | 37209 ft | 462 kts | 165° |
| 2026-04-16 14:18 | 30.77449 | -83.07806 | 37236 ft | 484 kts | 141° |
| 2026-04-16 14:18 | 30.72503 | -83.02577 | 37202 ft | 483 kts | 142° |
| 2026-04-16 14:19 | 30.67523 | -82.97435 | 37200 ft | 476 kts | 142° |
| 2026-04-16 14:19 | 30.62595 | -82.92371 | 37198 ft | 473 kts | 142° |
| 2026-04-16 14:20 | 30.57630 | -82.87270 | 37200 ft | 479 kts | 142° |
| 2026-04-16 14:20 | 30.52617 | -82.82127 | 37202 ft | 484 kts | 142° |
| 2026-04-16 14:21 | 30.47584 | -82.76967 | 37200 ft | 481 kts | 142° |
| 2026-04-16 14:21 | 30.42618 | -82.71888 | 37200 ft | 474 kts | 142° |
| 2026-04-16 14:22 | 30.37709 | -82.66876 | 37206 ft | 473 kts | 142° |
| 2026-04-16 14:22 | 30.32748 | -82.61814 | 37210 ft | 480 kts | 142° |
| 2026-04-16 14:23 | 30.27739 | -82.56714 | 37213 ft | 484 kts | 142° |
| 2026-04-16 14:23 | 30.22668 | -82.51556 | 37216 ft | 481 kts | 142° |
| 2026-04-16 14:24 | 30.17709 | -82.46517 | 37208 ft | 475 kts | 142° |
| 2026-04-16 14:24 | 30.12680 | -82.41516 | 36954 ft | 476 kts | 149° |
| 2026-04-16 14:25 | 30.09768 | -82.39774 | 36736 ft | 472 kts | 161° |
| 2026-04-16 14:25 | 30.06717 | -82.38550 | 36462 ft | 467 kts | 169° |
| 2026-04-16 14:25 | 30.03549 | -82.37801 | 36191 ft | 459 kts | 177° |
| 2026-04-16 14:25 | 30.00387 | -82.37245 | 35914 ft | 460 kts | 173° |
| 2026-04-16 14:26 | 29.97256 | -82.36460 | 35637 ft | 459 kts | 171° |
| 2026-04-16 14:26 | 29.94186 | -82.35636 | 35359 ft | 454 kts | 171° |
| 2026-04-16 14:26 | 29.91133 | -82.34802 | 35085 ft | 453 kts | 172° |
| 2026-04-16 14:26 | 29.88050 | -82.33952 | 34786 ft | 451 kts | 171° |
| 2026-04-16 14:27 | 29.84984 | -82.33107 | 34483 ft | 450 kts | 171° |
| 2026-04-16 14:27 | 29.81982 | -82.32279 | 34130 ft | 450 kts | 171° |
| 2026-04-16 14:27 | 29.78923 | -82.31439 | 33782 ft | 449 kts | 171° |
| 2026-04-16 14:27 | 29.75894 | -82.30637 | 33433 ft | 448 kts | 172° |
| 2026-04-16 14:28 | 29.72823 | -82.29894 | 33083 ft | 447 kts | 172° |
| 2026-04-16 14:28 | 29.69810 | -82.29153 | 32771 ft | 446 kts | 172° |
| 2026-04-16 14:28 | 29.66786 | -82.28406 | 32459 ft | 445 kts | 172° |
| 2026-04-16 14:28 | 29.63738 | -82.27656 | 32144 ft | 444 kts | 172° |
| 2026-04-16 14:29 | 29.60720 | -82.26914 | 31834 ft | 443 kts | 172° |
| 2026-04-16 14:29 | 29.57726 | -82.26176 | 31524 ft | 443 kts | 172° |
| 2026-04-16 14:29 | 29.54723 | -82.25438 | 31211 ft | 442 kts | 171° |
| 2026-04-16 14:29 | 29.51699 | -82.24695 | 30900 ft | 442 kts | 171° |
| 2026-04-16 14:30 | 29.48700 | -82.23957 | 30589 ft | 441 kts | 172° |
| 2026-04-16 14:30 | 29.45703 | -82.23226 | 30282 ft | 441 kts | 171° |
| 2026-04-16 14:30 | 29.42698 | -82.22488 | 29970 ft | 441 kts | 171° |
| 2026-04-16 14:30 | 29.39711 | -82.21752 | 29662 ft | 441 kts | 171° |
| 2026-04-16 14:31 | 29.36689 | -82.21015 | 29350 ft | 440 kts | 171° |
| 2026-04-16 14:31 | 29.33724 | -82.20288 | 29044 ft | 439 kts | 171° |
| 2026-04-16 14:31 | 29.30736 | -82.19556 | 28737 ft | 439 kts | 171° |
| 2026-04-16 14:31 | 29.27800 | -82.18580 | 28437 ft | 441 kts | 162° |
| 2026-04-16 14:32 | 29.24964 | -82.17203 | 28145 ft | 440 kts | 160° |
| 2026-04-16 14:32 | 29.22160 | -82.15855 | 27849 ft | 439 kts | 160° |
| 2026-04-16 14:32 | 29.19344 | -82.14506 | 27554 ft | 437 kts | 160° |
| 2026-04-16 14:32 | 29.16554 | -82.13177 | 27255 ft | 435 kts | 160° |
| 2026-04-16 14:33 | 29.13753 | -82.11848 | 26957 ft | 433 kts | 160° |
| 2026-04-16 14:33 | 29.10978 | -82.10526 | 26623 ft | 432 kts | 160° |
| 2026-04-16 14:33 | 29.08193 | -82.09204 | 26126 ft | 435 kts | 160° |
| 2026-04-16 14:33 | 29.05433 | -82.07895 | 25559 ft | 425 kts | 160° |
| 2026-04-16 14:34 | 29.02713 | -82.06606 | 24979 ft | 413 kts | 159° |
| 2026-04-16 14:34 | 29.00160 | -82.05269 | 24415 ft | 404 kts | 153° |
| 2026-04-16 14:34 | 28.97809 | -82.03525 | 23842 ft | 396 kts | 144° |
| 2026-04-16 14:34 | 28.95786 | -82.01474 | 23286 ft | 390 kts | 135° |
| 2026-04-16 14:35 | 28.93971 | -81.99219 | 22734 ft | 382 kts | 135° |
| 2026-04-16 14:35 | 28.92154 | -81.97048 | 22175 ft | 374 kts | 135° |
| 2026-04-16 14:35 | 28.90380 | -81.94955 | 21631 ft | 368 kts | 135° |
| 2026-04-16 14:35 | 28.88615 | -81.92880 | 21079 ft | 363 kts | 135° |
| 2026-04-16 14:36 | 28.86812 | -81.90869 | 20522 ft | 358 kts | 140° |
| 2026-04-16 14:36 | 28.84957 | -81.89053 | 19980 ft | 354 kts | 140° |
| 2026-04-16 14:36 | 28.83118 | -81.87213 | 19432 ft | 350 kts | 139° |
| 2026-04-16 14:36 | 28.81307 | -81.85390 | 18886 ft | 347 kts | 139° |
| 2026-04-16 14:37 | 28.79465 | -81.83614 | 18327 ft | 344 kts | 144° |
| 2026-04-16 14:37 | 28.77515 | -81.82109 | 17789 ft | 341 kts | 146° |
| 2026-04-16 14:37 | 28.75555 | -81.80570 | 17228 ft | 338 kts | 146° |
| 2026-04-16 14:37 | 28.73643 | -81.79059 | 16675 ft | 336 kts | 146° |
| 2026-04-16 14:38 | 28.71750 | -81.77556 | 16115 ft | 333 kts | 145° |
| 2026-04-16 14:38 | 28.69835 | -81.76038 | 15557 ft | 330 kts | 145° |
| 2026-04-16 14:38 | 28.67981 | -81.74559 | 15007 ft | 328 kts | 145° |
| 2026-04-16 14:38 | 28.66122 | -81.73083 | 14456 ft | 325 kts | 146° |
| 2026-04-16 14:39 | 28.64269 | -81.71609 | 13905 ft | 322 kts | 145° |
| 2026-04-16 14:39 | 28.62460 | -81.70175 | 13355 ft | 318 kts | 146° |
| 2026-04-16 14:39 | 28.60642 | -81.68733 | 12810 ft | 315 kts | 145° |
| 2026-04-16 14:39 | 28.58872 | -81.67331 | 12272 ft | 312 kts | 145° |
| 2026-04-16 14:40 | 28.57088 | -81.65914 | 11730 ft | 309 kts | 145° |
| 2026-04-16 14:40 | 28.55344 | -81.64535 | 11284 ft | 302 kts | 144° |
| 2026-04-16 14:40 | 28.53660 | -81.63203 | 10961 ft | 292 kts | 144° |
| 2026-04-16 14:40 | 28.52012 | -81.61895 | 10484 ft | 289 kts | 144° |
| 2026-04-16 14:41 | 28.50356 | -81.60584 | 10001 ft | 286 kts | 144° |
| 2026-04-16 14:41 | 28.48742 | -81.59310 | 9526 ft | 284 kts | 144° |
| 2026-04-16 14:41 | 28.47119 | -81.58028 | 9047 ft | 281 kts | 143° |
| 2026-04-16 14:41 | 28.45531 | -81.56768 | 8567 ft | 277 kts | 143° |
| 2026-04-16 14:42 | 28.43974 | -81.55539 | 8091 ft | 274 kts | 143° |
| 2026-04-16 14:42 | 28.42423 | -81.54315 | 7608 ft | 270 kts | 143° |
| 2026-04-16 14:42 | 28.40892 | -81.53104 | 7121 ft | 267 kts | 143° |
| 2026-04-16 14:42 | 28.39366 | -81.51901 | 6630 ft | 264 kts | 143° |
| 2026-04-16 14:43 | 28.37865 | -81.50717 | 6143 ft | 261 kts | 143° |
| 2026-04-16 14:43 | 28.36385 | -81.49547 | 5602 ft | 260 kts | 143° |
| 2026-04-16 14:43 | 28.34899 | -81.48373 | 5011 ft | 260 kts | 143° |
| 2026-04-16 14:43 | 28.33532 | -81.47096 | 4430 ft | 259 kts | 132° |
| 2026-04-16 14:44 | 28.32595 | -81.45371 | 3823 ft | 257 kts | 103° |
| 2026-04-16 14:44 | 28.32708 | -81.43413 | 3256 ft | 256 kts | 68° |
| 2026-04-16 14:44 | 28.33666 | -81.41749 | 2696 ft | 255 kts | 60° |
| 2026-04-16 14:44 | 28.34030 | -81.39832 | 2299 ft | 244 kts | 91° |
| 2026-04-16 14:45 | 28.33742 | -81.38033 | 2193 ft | 223 kts | 120° |
| 2026-04-16 14:45 | 28.32646 | -81.37137 | 2020 ft | 189 kts | 171° |
| 2026-04-16 14:45 | 28.31418 | -81.37058 | 1828 ft | 161 kts | 172° |
| 2026-04-16 14:45 | 28.30495 | -81.37659 | 1171 ft | 171 kts | 235° |
| 2026-04-16 14:46 | 28.30289 | -81.38799 | 1062 ft | 141 kts | 289° |
| 2026-04-16 14:46 | 28.30552 | -81.39794 | 904 ft | 121 kts | 275° |
| 2026-04-16 14:46 | 28.30537 | -81.40737 | 647 ft | 120 kts | 256° |
| 2026-04-16 14:46 | 28.30248 | -81.41608 | 442 ft | 116 kts | 237° |
| 2026-04-16 14:47 | 28.29818 | -81.42366 | 251 ft | 112 kts | 236° |
| 2026-04-16 14:47 | 28.29408 | -81.43096 | 101 ft | 105 kts | 235° |
| 2026-04-16 14:47 | 28.29057 | -81.43725 | 80 ft | 72 kts | 238° |
| 2026-04-16 14:47 | 28.28887 | -81.44036 | 80 ft | 29 kts | 238° |
| 2026-04-16 14:48 | 28.28788 | -81.44233 | 80 ft | 28 kts | 243° |
| 2026-04-16 14:48 | 28.28708 | -81.44366 | 79 ft | 14 kts | 237° |
| 2026-04-16 14:48 | 28.28739 | -81.44432 | 78 ft | 11 kts | 341° |
| 2026-04-16 14:48 | 28.28814 | -81.44408 | 78 ft | 11 kts | 57° |
| 2026-04-16 14:49 | 28.28852 | -81.44340 | 80 ft | 9 kts | 58° |
| 2026-04-16 14:49 | 28.28889 | -81.44273 | 80 ft | 10 kts | 58° |
| 2026-04-16 14:49 | 28.28927 | -81.44204 | 80 ft | 10 kts | 53° |
| 2026-04-16 14:49 | 28.28965 | -81.44134 | 80 ft | 10 kts | 63° |
| 2026-04-16 14:50 | 28.29006 | -81.44061 | 80 ft | 11 kts | 55° |
| 2026-04-16 14:50 | 28.29073 | -81.44060 | 80 ft | 10 kts | 335° |
| 2026-04-16 14:50 | 28.29143 | -81.44096 | 80 ft | 11 kts | 335° |
| 2026-04-16 14:50 | 28.29213 | -81.44138 | 80 ft | 11 kts | 326° |
| 2026-04-16 14:51 | 28.29278 | -81.44178 | 80 ft | 2 kts | 328° |
| 2026-04-16 14:51 | 28.29279 | -81.44178 | 80 ft | 0 kts | 328° |